KELY

Ely Arpt / Yelland Field / Airport

Ely, Nevada, USA
KELY 171120Z 1712/1812 20015KT P6SM BKN200 FM171400 18008KT P6SM VCSH SCT025 OVC050 FM171600 17008KT 5SM -SHSN BR SCT015 OVC035 TEMPO 1717/1721 2SM -SN BKN020 FM172200 VRB06KT P6SM BKN060 FM180300 18008KT P6SM SCT040 BKN060
Issued Valid From Valid To
Dec-17 @ 11:20 UTC
(49 minutes ago)
Dec-17 @ 12:00 UTC
(9 minutes ago)
Dec-18 @ 12:00 UTC
(in 24 hours)
Dec-17 @ 12:00 to Dec-17 @ 14:00
KELY 171120Z 1712/1812 20015KT P6SM BKN200
Wind Visibility Clouds
200° at 15 knots Greater than 6 miles
  • Broken at 20,000' AGL
From Dec-17 @ 14:00 to Dec-17 @ 16:00
FM171400 18008KT P6SM VCSH SCT025 OVC050
Wind Visibility Clouds
180° at 8 knots Greater than 6 miles
  • Scattered at 2,500' AGL
  • Overcast at 5,000' AGL
From Dec-17 @ 16:00 to Dec-17 @ 22:00
FM171600 17008KT 5SM -SHSN BR SCT015 OVC035
Wind Visibility Clouds Conditions
170° at 8 knots 5 miles
  • Scattered at 1,500' AGL
  • Overcast at 3,500' AGL
  • Light Snow
  • Mist
Temporary Dec-17 @ 17:00 to Dec-17 @ 21:00
TEMPO 1717/1721 2SM -SN BKN020
Visibility Clouds Conditions
2 miles
  • Broken at 2,000' AGL
  • Light Snow
From Dec-17 @ 22:00 to Dec-18 @ 03:00
FM172200 VRB06KT P6SM BKN060
Wind Visibility Clouds
Variable at 6 knots Greater than 6 miles
  • Broken at 6,000' AGL
From Dec-18 @ 03:00 to Dec-18 @ 12:00
FM180300 18008KT P6SM SCT040 BKN060
Wind Visibility Clouds
180° at 8 knots Greater than 6 miles
  • Scattered at 4,000' AGL
  • Broken at 6,000' AGL
KELY 171120Z 1712/1812 20015KT P6SM BKN200 FM171400 18008KT P6SM VCSH SCT025 OVC050 FM171600 17008KT 5SM -SHSN BR SCT015 OVC035 TEMPO 1717/1721 2SM -SN BKN020 FM172200 VRB06KT P6SM BKN060 FM180300 18008KT P6SM SCT040 BKN060
Issued Dec-17 @ 11:20 UTC
(49 minutes ago)
Valid From Dec-17 @ 12:00 UTC
(9 minutes ago)
Valid To Dec-18 @ 12:00 UTC
(in 24 hours)
Dec-17 @ 12:00 - Dec-17 @ 14:00
Wind Visibility
200° at 15 knots Greater than 6 miles
Clouds
  • Broken at 20,000' AGL
From Dec-17 @ 14:00 - Dec-17 @ 16:00
Wind Visibility
180° at 8 knots Greater than 6 miles
Clouds
  • Scattered at 2,500' AGL
  • Overcast at 5,000' AGL
From Dec-17 @ 16:00 - Dec-17 @ 22:00
Wind Visibility
170° at 8 knots 5 miles
Clouds
  • Scattered at 1,500' AGL
  • Overcast at 3,500' AGL
Conditions
  • Light Snow
  • Mist
Temporary Dec-17 @ 17:00 - Dec-17 @ 21:00
Clouds
  • Broken at 2,000' AGL
Conditions
  • Light Snow
From Dec-17 @ 22:00 - Dec-18 @ 03:00
Wind Visibility
Variable at 6 knots Greater than 6 miles
Clouds
  • Broken at 6,000' AGL
From Dec-18 @ 03:00 - Dec-18 @ 12:00
Wind Visibility
180° at 8 knots Greater than 6 miles
Clouds
  • Scattered at 4,000' AGL
  • Broken at 6,000' AGL